createdAt,value
2022-09-01T00:00:03.505Z,73.47
2022-09-01T00:02:32.612Z,73.62
2022-09-01T00:05:02.689Z,72.85
2022-09-01T00:07:31.828Z,72.86
2022-09-01T00:10:00.759Z,74.18
2022-09-01T00:12:29.885Z,73.88
2022-09-01T00:14:59.237Z,73.57
2022-09-01T00:17:28.428Z,73.83
2022-09-01T00:19:56.722Z,73.31
2022-09-01T00:22:26.647Z,73.65
2022-09-01T00:24:55.221Z,73.80
2022-09-01T00:27:30.644Z,73.98
2022-09-01T00:29:59.447Z,74.02
2022-09-01T00:32:27.589Z,74.23
2022-09-01T00:34:55.624Z,74.39
2022-09-01T00:37:25.049Z,75.34
2022-09-01T00:39:53.082Z,75.20
2022-09-01T00:42:21.284Z,75.53
2022-09-01T00:44:49.546Z,75.79
2022-09-01T00:47:19.258Z,75.71
2022-09-01T00:49:50.342Z,77.70
2022-09-01T00:52:22.094Z,77.22
2022-09-01T00:54:56.517Z,78.18
2022-09-01T00:57:24.544Z,77.74
2022-09-01T00:59:57.949Z,77.87
2022-09-01T01:02:26.557Z,77.25
2022-09-01T01:05:00.665Z,77.53
2022-09-01T01:07:30.173Z,77.56
2022-09-01T01:09:59.572Z,77.42
2022-09-01T01:12:28.127Z,76.82
2022-09-01T01:14:56.169Z,76.48
2022-09-01T01:17:24.933Z,77.15
2022-09-01T01:20:11.959Z,77.15
2022-09-01T01:23:03.508Z,76.47
2022-09-01T01:25:35.871Z,77.62
2022-09-01T01:28:11.164Z,77.72
2022-09-01T01:30:41.948Z,78.49
2022-09-01T01:33:11.596Z,78.95
2022-09-01T01:35:40.113Z,78.63
2022-09-01T01:38:08.926Z,79.47
2022-09-01T01:40:39.557Z,79.38
2022-09-01T01:43:07.852Z,79.84
2022-09-01T01:45:36.469Z,79.35
2022-09-01T01:48:06.162Z,80.55
2022-09-01T01:50:35.852Z,80.37
2022-09-01T01:53:11.061Z,80.46
2022-09-01T01:55:41.888Z,80.75
2022-09-01T01:58:12.466Z,81.78
2022-09-01T02:00:46.780Z,81.23
2022-09-01T02:03:17.366Z,82.54
2022-09-01T02:05:46.159Z,82.43
2022-09-01T02:08:15.714Z,82.48
2022-09-01T02:10:47.415Z,82.55
2022-09-01T02:13:18.271Z,81.96
2022-09-01T02:15:48.669Z,82.64
2022-09-01T02:18:21.681Z,81.79
2022-09-01T02:20:51.539Z,82.16
2022-09-01T02:23:23.434Z,82.10
2022-09-01T02:26:15.478Z,81.20
2022-09-01T02:28:46.879Z,81.89
2022-09-01T02:31:21.205Z,81.70
2022-09-01T02:33:49.214Z,81.08
2022-09-01T02:36:19.757Z,80.92
2022-09-01T02:38:53.565Z,82.33
2022-09-01T02:41:29.405Z,81.90
2022-09-01T02:43:57.787Z,82.58
2022-09-01T02:46:26.285Z,82.01
2022-09-01T02:48:54.726Z,82.05
2022-09-01T02:51:25.812Z,81.51
2022-09-01T02:53:55.181Z,81.99
2022-09-01T02:56:27.665Z,82.28
2022-09-01T02:58:56.690Z,83.04
2022-09-01T03:01:27.427Z,83.12
2022-09-01T03:03:57.303Z,83.36
2022-09-01T03:06:26.849Z,83.36
2022-09-01T03:08:57.050Z,82.87
2022-09-01T03:11:26.668Z,83.20
2022-09-01T03:13:54.850Z,82.59
2022-09-01T03:16:23.669Z,83.38
2022-09-01T03:18:52.051Z,83.65
2022-09-01T03:21:20.455Z,84.23
2022-09-01T03:23:49.661Z,84.52
2022-09-01T03:26:21.150Z,85.04
2022-09-01T03:28:52.182Z,84.30
2022-09-01T03:31:21.112Z,84.33
2022-09-01T03:33:51.178Z,85.11
2022-09-01T03:36:20.332Z,85.39
2022-09-01T03:38:49.829Z,85.31
2022-09-01T03:41:21.675Z,85.55
2022-09-01T03:43:51.372Z,85.63
2022-09-01T03:46:22.525Z,85.32
2022-09-01T03:48:52.331Z,85.95
2022-09-01T03:51:22.921Z,86.11
2022-09-01T03:53:54.587Z,85.79
2022-09-01T03:56:24.775Z,86.19
2022-09-01T03:58:54.812Z,86.68
2022-09-01T04:01:23.086Z,86.78
2022-09-01T04:03:52.324Z,87.27
2022-09-01T04:06:24.369Z,87.03
2022-09-01T04:08:56.953Z,87.72
2022-09-01T04:11:25.438Z,87.54
2022-09-01T04:13:54.935Z,87.21
2022-09-01T04:16:42.674Z,87.56
2022-09-01T04:19:20.453Z,87.79
2022-09-01T04:21:51.806Z,87.70
2022-09-01T04:24:20.434Z,88.09
2022-09-01T04:26:49.851Z,88.61
2022-09-01T04:29:27.773Z,88.90
2022-09-01T04:31:56.777Z,89.20
2022-09-01T04:34:26.394Z,88.67
2022-09-01T04:36:55.501Z,88.55
2022-09-01T04:39:24.252Z,88.38
2022-09-01T04:41:52.750Z,88.54
2022-09-01T04:44:23.477Z,88.45
2022-09-01T04:46:51.714Z,88.10
2022-09-01T04:49:22.689Z,87.36
2022-09-01T04:51:54.139Z,86.95
2022-09-01T04:54:23.986Z,87.63
2022-09-01T04:56:54.116Z,87.12
2022-09-01T04:59:27.356Z,86.87
2022-09-01T05:01:57.755Z,85.18
2022-09-01T05:04:28.557Z,84.42
2022-09-01T05:06:59.902Z,85.28
2022-09-01T05:09:29.753Z,87.37
2022-09-01T05:12:01.770Z,86.25
2022-09-01T05:14:31.191Z,85.00
2022-09-01T05:17:00.360Z,85.90
2022-09-01T05:19:30.949Z,84.19
2022-09-01T05:22:00.124Z,83.46
2022-09-01T05:24:30.535Z,83.44
2022-09-01T05:26:59.077Z,83.36
2022-09-01T05:29:27.860Z,84.76
2022-09-01T05:31:58.828Z,85.46
2022-09-01T05:34:28.095Z,84.80
2022-09-01T05:36:59.351Z,84.32
2022-09-01T05:39:28.134Z,84.34
2022-09-01T05:41:57.340Z,85.15
2022-09-01T05:44:25.752Z,83.13
2022-09-01T05:46:55.960Z,83.70
2022-09-01T05:49:27.011Z,85.29
2022-09-01T05:51:59.104Z,85.63
2022-09-01T05:54:29.270Z,83.76
2022-09-01T05:57:23.768Z,84.38
2022-09-01T05:59:53.929Z,83.90
2022-09-01T06:02:22.998Z,83.79
2022-09-01T06:04:55.019Z,83.28
2022-09-01T06:07:25.292Z,82.96
2022-09-01T06:09:53.907Z,83.25
2022-09-01T06:12:23.418Z,81.50
2022-09-01T06:14:54.524Z,80.92
2022-09-01T06:17:25.293Z,82.21
2022-09-01T06:19:56.917Z,80.52
2022-09-01T06:22:26.851Z,80.67
2022-09-01T06:25:01.078Z,79.06
2022-09-01T06:27:30.721Z,77.61
2022-09-01T06:29:58.917Z,75.33
2022-09-01T06:32:27.209Z,74.67
2022-09-01T06:34:59.185Z,73.50
2022-09-01T06:37:29.041Z,75.61
2022-09-01T06:39:57.690Z,72.48
2022-09-01T06:42:26.246Z,71.98
2022-09-01T06:44:54.628Z,71.20
2022-09-01T06:47:22.734Z,71.15
2022-09-01T06:49:53.632Z,70.79
2022-09-01T06:52:27.319Z,72.55
2022-09-01T06:54:56.047Z,71.27
2022-09-01T07:00:19.191Z,72.46
2022-09-01T07:02:48.293Z,72.87
2022-09-01T07:08:17.953Z,72.20
2022-09-01T07:13:38.803Z,71.19
2022-09-01T07:18:59.010Z,71.21
2022-09-01T07:21:39.479Z,71.95
2022-09-01T07:24:12.312Z,70.68
2022-09-01T07:26:47.172Z,67.30
2022-09-01T07:29:15.566Z,68.36
2022-09-01T07:32:43.449Z,67.49
2022-09-01T07:34:40.242Z,64.89
2022-09-01T07:38:47.041Z,66.12
2022-09-01T07:45:31.368Z,67.34
2022-09-01T07:48:03.691Z,66.57
2022-09-01T07:53:22.763Z,63.12
2022-09-01T07:55:53.982Z,61.31
2022-09-01T07:58:24.932Z,61.25
2022-09-01T08:00:54.571Z,60.06
2022-09-01T08:03:25.253Z,60.75
2022-09-01T08:05:57.922Z,60.68
2022-09-01T08:08:29.220Z,59.76
2022-09-01T09:32:06.979Z,45.57
2022-09-01T09:34:51.280Z,46.64
2022-09-01T09:37:24.198Z,47.29
2022-09-01T09:40:12.623Z,44.49
2022-09-01T09:42:42.459Z,46.81
2022-09-01T09:45:24.820Z,47.71
2022-09-01T09:47:56.138Z,46.16
2022-09-01T09:50:29.588Z,47.18
2022-09-01T09:53:15.470Z,43.89
2022-09-01T09:55:59.758Z,45.15
2022-09-01T09:58:36.558Z,43.44
2022-09-01T10:01:08.834Z,46.58
2022-09-01T10:03:42.458Z,45.08
2022-09-01T10:06:17.567Z,45.37
2022-09-01T10:08:48.120Z,43.51
2022-09-01T10:11:35.869Z,44.73
2022-09-01T10:14:07.933Z,43.25
2022-09-01T10:16:40.056Z,45.71
2022-09-01T10:19:13.997Z,45.28
2022-09-01T10:21:46.341Z,44.63
2022-09-01T10:24:22.500Z,45.10
2022-09-01T10:26:58.142Z,44.00
2022-09-01T10:29:34.760Z,43.67
2022-09-01T10:32:28.419Z,43.46
2022-09-01T10:34:59.692Z,43.27
2022-09-01T10:37:28.833Z,42.83
2022-09-01T10:40:44.075Z,44.09
2022-09-01T10:43:43.884Z,43.66
2022-09-01T10:46:42.348Z,43.50
2022-09-01T10:49:36.673Z,44.76
2022-09-01T10:52:13.050Z,42.23
2022-09-01T10:54:57.458Z,43.40
2022-09-01T10:57:43.697Z,42.83
2022-09-01T11:04:02.801Z,42.99
2022-09-01T11:07:12.264Z,42.75
2022-09-01T11:09:44.008Z,43.09
2022-09-01T11:12:43.134Z,41.43
2022-09-01T11:15:40.170Z,41.88
2022-09-01T11:18:19.446Z,40.74
2022-09-01T11:20:48.762Z,42.79
2022-09-01T11:23:25.306Z,42.28
2022-09-01T11:28:48.114Z,40.75
2022-09-01T11:31:22.823Z,40.49
2022-09-01T11:34:01.073Z,41.02
2022-09-01T11:36:32.451Z,40.40
2022-09-01T11:39:09.007Z,41.02
2022-09-01T11:41:57.605Z,39.71
2022-09-01T11:44:33.950Z,41.58
2022-09-01T11:47:10.736Z,40.87
2022-09-01T11:49:50.278Z,40.88
2022-09-01T11:52:20.433Z,41.39
2022-09-01T11:54:49.701Z,39.41
2022-09-01T11:57:29.186Z,40.43
2022-09-01T11:59:59.151Z,40.08
2022-09-01T12:02:36.501Z,40.05
2022-09-01T12:05:26.060Z,39.41
2022-09-01T12:07:54.980Z,39.96
2022-09-01T12:10:30.926Z,41.07
2022-09-01T12:13:06.510Z,41.07
2022-09-01T12:15:43.439Z,40.54
2022-09-01T12:18:27.165Z,40.86
2022-09-01T12:20:57.962Z,40.65
2022-09-01T12:23:29.415Z,39.99
2022-09-01T12:26:00.275Z,39.70
2022-09-01T12:28:32.342Z,41.48
2022-09-01T12:31:07.551Z,39.10
2022-09-01T12:33:36.922Z,39.71
2022-09-01T12:36:16.843Z,39.56
2022-09-01T12:38:45.330Z,42.14
2022-09-01T12:41:36.066Z,40.73
2022-09-01T12:44:31.242Z,38.99
2022-09-01T12:47:02.315Z,39.90
2022-09-01T12:49:45.253Z,39.96
2022-09-01T12:52:29.771Z,39.98
2022-09-01T12:55:47.493Z,39.65
2022-09-01T12:58:06.705Z,40.23
2022-09-01T13:00:39.733Z,39.89
2022-09-01T13:03:09.685Z,40.42
2022-09-01T13:05:42.400Z,40.50
2022-09-01T13:08:11.857Z,39.73
2022-09-01T13:10:43.250Z,40.99
2022-09-01T13:13:12.773Z,39.89
2022-09-01T13:15:45.469Z,40.36
2022-09-01T13:18:13.727Z,40.48
2022-09-01T13:20:42.158Z,40.30
2022-09-01T13:23:12.875Z,40.59
2022-09-01T13:25:44.804Z,40.76
2022-09-01T13:28:13.300Z,40.96
2022-09-01T13:30:44.778Z,41.26
2022-09-01T13:33:21.717Z,41.49
2022-09-01T13:35:52.650Z,41.38
2022-09-01T13:38:21.271Z,40.26
2022-09-01T13:40:51.558Z,40.23
2022-09-01T13:43:22.277Z,40.25
2022-09-01T13:45:52.499Z,39.31
2022-09-01T13:48:23.030Z,40.39
2022-09-01T13:53:42.309Z,39.72
2022-09-01T13:56:10.611Z,41.03
2022-09-01T13:58:38.787Z,39.93
2022-09-01T14:01:08.729Z,39.56
2022-09-01T14:03:37.110Z,40.35
2022-09-01T14:06:07.215Z,39.99
2022-09-01T14:08:35.377Z,40.34
2022-09-01T14:11:04.345Z,39.98
2022-09-01T14:13:33.093Z,40.42
2022-09-01T14:16:01.815Z,40.51
2022-09-01T14:18:36.846Z,40.53
2022-09-01T14:21:05.772Z,41.17
2022-09-01T14:23:33.986Z,40.46
2022-09-01T14:26:02.167Z,40.29
2022-09-01T14:28:30.493Z,40.52
2022-09-01T14:33:27.597Z,41.16
2022-09-01T14:35:59.263Z,40.85
2022-09-01T14:38:27.386Z,40.66
2022-09-01T14:40:55.636Z,41.46
2022-09-01T14:43:25.595Z,41.18
2022-09-01T14:46:06.685Z,40.26
2022-09-01T14:48:35.662Z,41.21
2022-09-01T14:51:06.050Z,40.76
2022-09-01T14:53:34.939Z,40.54
2022-09-01T14:56:04.452Z,40.89
2022-09-01T14:58:33.583Z,41.43
2022-09-01T15:01:17.305Z,41.06
2022-09-01T15:03:49.865Z,41.12
2022-09-01T15:06:22.126Z,40.86
2022-09-01T15:08:51.218Z,42.21
2022-09-01T15:11:21.964Z,41.41
2022-09-01T15:13:52.674Z,41.74
2022-09-01T15:16:24.357Z,42.11
2022-09-01T15:18:55.440Z,40.92
2022-09-01T15:21:26.971Z,41.56
2022-09-01T15:23:55.574Z,40.67
2022-09-01T15:26:23.883Z,41.24
2022-09-01T15:28:52.518Z,41.55
2022-09-01T15:31:32.943Z,41.86
2022-09-01T15:34:03.427Z,41.35
2022-09-01T15:36:35.920Z,41.84
2022-09-01T15:39:05.398Z,41.81
2022-09-01T15:41:34.729Z,41.32
2022-09-01T15:44:05.529Z,42.03
2022-09-01T15:46:34.239Z,41.41
2022-09-01T15:49:02.934Z,42.02
2022-09-01T15:51:36.153Z,42.29
2022-09-01T15:54:08.632Z,41.39
2022-09-01T15:56:36.958Z,42.40
2022-09-01T15:59:06.714Z,42.15
2022-09-01T16:01:37.575Z,42.71
2022-09-01T16:04:07.140Z,41.98
2022-09-01T16:06:37.225Z,43.16
2022-09-01T16:09:06.061Z,41.79
2022-09-01T16:11:36.792Z,42.22
2022-09-01T16:14:05.598Z,42.96
2022-09-01T16:16:42.322Z,42.64
2022-09-01T16:19:24.587Z,42.88
2022-09-01T16:22:03.537Z,43.17
2022-09-01T16:24:31.624Z,42.89
2022-09-01T16:26:59.835Z,43.16
2022-09-01T16:29:33.959Z,44.06
2022-09-01T16:32:02.102Z,43.58
2022-09-01T16:34:32.178Z,43.57
2022-09-01T16:37:07.000Z,43.89
2022-09-01T16:39:47.056Z,43.68
2022-09-01T16:42:26.247Z,44.59
2022-09-01T16:45:04.996Z,45.03
2022-09-01T16:47:44.678Z,45.02
2022-09-01T16:50:20.239Z,44.86
2022-09-01T16:53:05.749Z,44.49
2022-09-01T16:55:41.542Z,44.13
2022-09-01T16:58:21.582Z,44.81
2022-09-01T17:01:03.402Z,44.67
2022-09-01T17:03:42.791Z,45.17
2022-09-01T17:06:16.870Z,45.90
2022-09-01T17:08:55.009Z,46.66
2022-09-01T17:11:28.191Z,49.83
2022-09-01T17:13:58.267Z,54.39
2022-09-01T17:16:31.084Z,64.11
2022-09-01T17:19:01.150Z,72.06
2022-09-01T17:21:34.508Z,77.81
2022-09-01T17:24:12.546Z,79.15
2022-09-01T17:26:41.908Z,80.24
2022-09-01T17:29:16.088Z,81.92
2022-09-01T17:31:56.020Z,85.36
2022-09-01T17:34:38.848Z,85.35
2022-09-01T17:37:20.696Z,87.88
2022-09-01T17:40:01.049Z,88.98
2022-09-01T17:42:34.648Z,89.34
2022-09-01T17:45:13.146Z,90.80
2022-09-01T17:47:53.083Z,90.49
2022-09-01T17:50:26.440Z,92.06
2022-09-01T17:53:10.046Z,92.46
2022-09-01T17:55:50.434Z,92.36
2022-09-01T17:58:38.358Z,92.73
2022-09-01T18:01:11.414Z,93.70
2022-09-01T18:03:51.478Z,94.53
2022-09-01T18:06:29.504Z,94.54
2022-09-01T18:08:59.454Z,96.43
2022-09-01T18:11:40.513Z,97.18
2022-09-01T18:14:13.520Z,97.50
2022-09-01T18:16:49.479Z,97.88
2022-09-01T18:19:20.706Z,97.66
2022-09-01T18:21:54.165Z,98.66
2022-09-01T18:24:27.835Z,98.24
2022-09-01T18:26:57.296Z,97.92
2022-09-01T18:29:29.736Z,98.26
2022-09-01T18:32:19.369Z,97.49
2022-09-01T18:34:58.031Z,97.82
2022-09-01T18:37:33.570Z,98.35
2022-09-01T18:40:09.485Z,98.74
2022-09-01T18:42:46.190Z,97.39
2022-09-01T18:45:24.634Z,96.61
2022-09-01T18:48:01.389Z,96.04
2022-09-01T18:50:35.873Z,96.55
2022-09-01T18:53:21.313Z,96.47
2022-09-01T18:55:56.305Z,97.95
2022-09-01T18:58:42.258Z,97.78
2022-09-01T19:01:25.786Z,98.12
2022-09-01T19:03:58.555Z,97.91
2022-09-01T19:06:33.663Z,97.01
2022-09-01T19:09:11.826Z,96.64
2022-09-01T19:11:49.434Z,96.21
2022-09-01T19:14:30.137Z,97.40
2022-09-01T19:17:16.490Z,98.88
2022-09-01T19:19:51.090Z,100.00
2022-09-01T19:22:24.598Z,100.00
2022-09-01T19:25:22.718Z,100.00
2022-09-01T19:27:58.316Z,100.00
2022-09-01T19:30:28.064Z,100.00
2022-09-01T19:32:59.500Z,100.00
2022-09-01T19:35:29.469Z,100.00
2022-09-01T19:37:57.617Z,100.00
2022-09-01T19:40:31.843Z,100.00
2022-09-01T19:43:06.531Z,100.00
2022-09-01T19:45:46.172Z,100.00
2022-09-01T19:48:19.344Z,100.00
2022-09-01T19:50:51.641Z,100.00
2022-09-01T19:53:38.056Z,100.00
2022-09-01T19:56:10.686Z,100.00
2022-09-01T19:58:55.770Z,100.00
2022-09-01T20:01:43.254Z,100.00
2022-09-01T20:04:21.744Z,100.00
2022-09-01T20:06:53.748Z,100.00
2022-09-01T20:09:27.174Z,100.00
2022-09-01T20:12:00.111Z,100.00
2022-09-01T20:14:44.395Z,100.00
2022-09-01T20:17:21.505Z,100.00
2022-09-01T20:19:56.767Z,100.00
2022-09-01T20:22:33.751Z,99.37
2022-09-01T20:25:09.866Z,100.00
2022-09-01T20:27:49.228Z,100.00
2022-09-01T20:30:20.077Z,100.00
2022-09-01T20:32:56.758Z,100.00
2022-09-01T20:35:30.023Z,100.00
2022-09-01T20:38:02.266Z,100.00
2022-09-01T20:40:34.891Z,100.00
2022-09-01T20:43:10.122Z,100.00
2022-09-01T20:45:39.810Z,100.00
2022-09-01T20:48:18.245Z,100.00
2022-09-01T20:50:52.753Z,100.00
2022-09-01T20:53:44.739Z,100.00
2022-09-01T20:56:20.322Z,99.51
2022-09-01T20:58:55.097Z,100.00
2022-09-01T21:01:34.507Z,100.00
2022-09-01T21:04:11.150Z,100.00
2022-09-01T21:06:49.710Z,99.81
2022-09-01T21:09:28.808Z,100.00
2022-09-01T21:12:05.292Z,100.00
2022-09-01T21:14:43.574Z,100.00
2022-09-01T21:17:21.649Z,100.00
2022-09-01T21:20:00.041Z,100.00
2022-09-01T21:22:28.722Z,100.00
2022-09-01T21:24:57.596Z,100.00
2022-09-01T21:27:29.590Z,100.00
2022-09-01T21:30:03.126Z,100.00
2022-09-01T21:32:34.762Z,99.80
2022-09-01T21:35:05.578Z,100.00
2022-09-01T21:37:33.649Z,100.00
2022-09-01T21:40:01.866Z,100.00
2022-09-01T21:42:33.372Z,100.00
2022-09-01T21:45:03.218Z,100.00
2022-09-01T21:47:33.999Z,100.00
2022-09-01T21:50:03.793Z,100.00
2022-09-01T21:52:31.795Z,100.00
2022-09-01T21:54:59.830Z,100.00
2022-09-01T21:57:28.005Z,100.00
2022-09-01T21:59:56.106Z,100.00
2022-09-01T22:02:24.209Z,100.00
2022-09-01T22:04:56.763Z,100.00
2022-09-01T22:07:26.157Z,100.00
2022-09-01T22:09:54.202Z,100.00
2022-09-01T22:12:22.213Z,100.00
2022-09-01T22:14:50.250Z,100.00
2022-09-01T22:17:18.260Z,100.00
2022-09-01T22:19:46.480Z,100.00
2022-09-01T22:22:15.001Z,100.00
2022-09-01T22:24:44.369Z,100.00
2022-09-01T22:27:12.373Z,100.00
2022-09-01T22:29:40.412Z,100.00
2022-09-01T22:32:09.382Z,100.00
2022-09-01T22:34:37.392Z,100.00
2022-09-01T22:37:06.229Z,100.00
2022-09-01T22:39:34.218Z,100.00
2022-09-01T22:42:03.933Z,100.00
2022-09-01T22:44:31.971Z,100.00
2022-09-01T22:47:00.077Z,100.00
2022-09-01T22:49:28.375Z,100.00
2022-09-01T22:51:56.632Z,100.00
2022-09-01T22:54:24.710Z,100.00
2022-09-01T22:56:53.076Z,100.00
2022-09-01T22:59:25.766Z,100.00
2022-09-01T23:01:54.915Z,100.00
2022-09-01T23:04:23.522Z,100.00
2022-09-01T23:06:54.541Z,100.00
2022-09-01T23:09:22.815Z,100.00
2022-09-01T23:11:51.314Z,100.00
2022-09-01T23:14:19.653Z,100.00
2022-09-01T23:16:51.326Z,100.00
2022-09-01T23:19:19.873Z,100.00
2022-09-01T23:21:48.375Z,100.00
2022-09-01T23:24:16.518Z,100.00
2022-09-01T23:26:48.604Z,100.00
2022-09-01T23:29:17.165Z,100.00
2022-09-01T23:31:45.282Z,100.00
2022-09-01T23:34:14.743Z,100.00
2022-09-01T23:36:43.727Z,100.00
2022-09-01T23:39:11.778Z,100.00
2022-09-01T23:41:40.368Z,100.00
2022-09-01T23:44:10.647Z,100.00
2022-09-01T23:46:43.656Z,100.00
2022-09-01T23:49:13.596Z,100.00
2022-09-01T23:51:43.929Z,100.00
2022-09-01T23:54:13.486Z,100.00
2022-09-01T23:56:41.698Z,100.00
2022-09-01T23:59:10.104Z,100.00
